Kudat, Malaysia
Current Conditions -  °F | °C
As of 10:00 PM on Friday 31 Oct 2014 (Local Time) from WBKT Reporting Station
Broken Clouds Broken Clouds  
Wind Chill: 79°   Ceiling: 27000
Heat Index: 83°   Visibility: 6mi
Dew Point: 77°   Wind: 1mph
Humidity: 94%   Direction: 280°W
Pressure: 29.8"   Gusts: NA
Location:  6.9°N, 116.84°E
Report Text: WBKT 311400Z 28001KT 9999 FEW015 SCT140 BKN270 26/25 Q1009
Loading
Personal Weather Stations






























Interactive Weather Map
Tropical Storm Tracking
New forecast layout! Learn more

10-Day Weather Forecast

Advertisements
Track Severe Weather on mobile